sensor_id;sensor_type;location;lat;lon;timestamp;temperature;humidity
36790;DHT22;22740;52.182;8.780;2023-05-19T00:00:29;9.40;99.90
36790;DHT22;22740;52.182;8.780;2023-05-19T00:06:33;9.00;99.90
36790;DHT22;22740;52.182;8.780;2023-05-19T00:12:38;8.90;99.90
36790;DHT22;22740;52.182;8.780;2023-05-19T00:18:41;9.30;99.90
36790;DHT22;22740;52.182;8.780;2023-05-19T00:24:44;9.40;99.90
36790;DHT22;22740;52.182;8.780;2023-05-19T00:30:54;9.20;99.90
36790;DHT22;22740;52.182;8.780;2023-05-19T00:36:58;8.90;99.90
36790;DHT22;22740;52.182;8.780;2023-05-19T00:43:00;8.80;99.90
36790;DHT22;22740;52.182;8.780;2023-05-19T00:49:04;8.90;99.90
36790;DHT22;22740;52.182;8.780;2023-05-19T00:55:08;8.80;99.90
36790;DHT22;22740;52.182;8.780;2023-05-19T01:01:12;8.60;99.90
36790;DHT22;22740;52.182;8.780;2023-05-19T01:15:26;8.50;99.90
36790;DHT22;22740;52.182;8.780;2023-05-19T01:28:35;8.50;99.90
36790;DHT22;22740;52.182;8.780;2023-05-19T01:34:45;8.70;99.90
36790;DHT22;22740;52.182;8.780;2023-05-19T01:40:51;8.80;99.90
36790;DHT22;22740;52.182;8.780;2023-05-19T01:46:56;8.80;99.90
36790;DHT22;22740;52.182;8.780;2023-05-19T01:53:02;8.80;99.90
36790;DHT22;22740;52.182;8.780;2023-05-19T02:06:06;8.30;99.90
36790;DHT22;22740;52.182;8.780;2023-05-19T02:12:18;7.90;99.90
36790;DHT22;22740;52.182;8.780;2023-05-19T02:18:22;7.80;99.90
36790;DHT22;22740;52.182;8.780;2023-05-19T02:24:26;7.60;99.90
36790;DHT22;22740;52.182;8.780;2023-05-19T02:30:30;7.60;99.90
36790;DHT22;22740;52.182;8.780;2023-05-19T02:36:34;7.70;99.90
36790;DHT22;22740;52.182;8.780;2023-05-19T02:42:42;7.80;99.90
36790;DHT22;22740;52.182;8.780;2023-05-19T02:48:44;8.10;99.90
36790;DHT22;22740;52.182;8.780;2023-05-19T02:54:48;8.10;99.90
36790;DHT22;22740;52.182;8.780;2023-05-19T03:00:52;8.00;99.90
36790;DHT22;22740;52.182;8.780;2023-05-19T03:06:54;7.90;99.90
36790;DHT22;22740;52.182;8.780;2023-05-19T03:12:59;7.80;99.90
36790;DHT22;22740;52.182;8.780;2023-05-19T03:19:02;8.00;99.90
36790;DHT22;22740;52.182;8.780;2023-05-19T03:25:05;8.00;99.90
36790;DHT22;22740;52.182;8.780;2023-05-19T03:31:08;8.30;99.90
36790;DHT22;22740;52.182;8.780;2023-05-19T03:37:12;8.30;99.90
36790;DHT22;22740;52.182;8.780;2023-05-19T03:43:16;8.30;99.90
36790;DHT22;22740;52.182;8.780;2023-05-19T03:49:20;8.30;99.90
36790;DHT22;22740;52.182;8.780;2023-05-19T03:55:25;8.20;99.90
36790;DHT22;22740;52.182;8.780;2023-05-19T04:01:33;8.00;99.90
36790;DHT22;22740;52.182;8.780;2023-05-19T04:07:36;8.00;99.90
36790;DHT22;22740;52.182;8.780;2023-05-19T04:13:39;8.30;99.90
36790;DHT22;22740;52.182;8.780;2023-05-19T04:19:42;9.30;99.90
36790;DHT22;22740;52.182;8.780;2023-05-19T04:25:45;11.70;99.90
36790;DHT22;22740;52.182;8.780;2023-05-19T04:31:50;13.40;99.90
36790;DHT22;22740;52.182;8.780;2023-05-19T04:37:54;13.50;99.90
36790;DHT22;22740;52.182;8.780;2023-05-19T04:43:58;12.50;99.90
36790;DHT22;22740;52.182;8.780;2023-05-19T04:50:01;11.90;99.90
36790;DHT22;22740;52.182;8.780;2023-05-19T04:56:04;11.60;99.90
36790;DHT22;22740;52.182;8.780;2023-05-19T05:02:08;12.50;99.90
36790;DHT22;22740;52.182;8.780;2023-05-19T05:08:12;12.80;99.90
36790;DHT22;22740;52.182;8.780;2023-05-19T05:14:16;12.80;99.90
36790;DHT22;22740;52.182;8.780;2023-05-19T05:20:21;12.80;99.90
36790;DHT22;22740;52.182;8.780;2023-05-19T05:26:29;12.60;99.90
36790;DHT22;22740;52.182;8.780;2023-05-19T05:32:35;12.40;99.90
36790;DHT22;22740;52.182;8.780;2023-05-19T05:38:38;12.40;99.90
36790;DHT22;22740;52.182;8.780;2023-05-19T05:44:42;12.30;99.90
36790;DHT22;22740;52.182;8.780;2023-05-19T05:50:45;12.20;99.90
36790;DHT22;22740;52.182;8.780;2023-05-19T05:56:49;12.00;99.90
36790;DHT22;22740;52.182;8.780;2023-05-19T06:02:52;12.10;99.90
36790;DHT22;22740;52.182;8.780;2023-05-19T06:08:56;11.90;99.90
36790;DHT22;22740;52.182;8.780;2023-05-19T06:15:01;11.70;99.90
36790;DHT22;22740;52.182;8.780;2023-05-19T06:21:04;11.10;99.90
36790;DHT22;22740;52.182;8.780;2023-05-19T06:27:08;11.80;99.90
36790;DHT22;22740;52.182;8.780;2023-05-19T06:33:12;11.90;99.90
36790;DHT22;22740;52.182;8.780;2023-05-19T06:39:16;12.60;99.90
36790;DHT22;22740;52.182;8.780;2023-05-19T06:45:19;13.70;99.90
36790;DHT22;22740;52.182;8.780;2023-05-19T06:51:24;12.80;99.90
36790;DHT22;22740;52.182;8.780;2023-05-19T06:57:27;13.00;99.90
36790;DHT22;22740;52.182;8.780;2023-05-19T07:03:32;12.70;99.90
36790;DHT22;22740;52.182;8.780;2023-05-19T07:09:35;13.00;99.90
36790;DHT22;22740;52.182;8.780;2023-05-19T07:15:39;12.90;99.90
36790;DHT22;22740;52.182;8.780;2023-05-19T07:21:43;12.80;99.90
36790;DHT22;22740;52.182;8.780;2023-05-19T07:27:46;12.60;99.90
36790;DHT22;22740;52.182;8.780;2023-05-19T07:33:50;12.70;99.90
36790;DHT22;22740;52.182;8.780;2023-05-19T07:39:56;13.40;99.90
36790;DHT22;22740;52.182;8.780;2023-05-19T07:46:00;13.70;99.90
36790;DHT22;22740;52.182;8.780;2023-05-19T07:52:04;13.40;99.90
36790;DHT22;22740;52.182;8.780;2023-05-19T07:58:09;13.60;99.90
36790;DHT22;22740;52.182;8.780;2023-05-19T08:04:11;14.00;99.90
36790;DHT22;22740;52.182;8.780;2023-05-19T08:10:15;14.20;99.90
36790;DHT22;22740;52.182;8.780;2023-05-19T08:16:19;14.30;99.90
36790;DHT22;22740;52.182;8.780;2023-05-19T08:22:22;14.50;99.90
36790;DHT22;22740;52.182;8.780;2023-05-19T08:28:25;14.70;99.90
36790;DHT22;22740;52.182;8.780;2023-05-19T08:34:29;14.80;99.90
36790;DHT22;22740;52.182;8.780;2023-05-19T08:40:32;14.80;99.90
36790;DHT22;22740;52.182;8.780;2023-05-19T08:46:37;14.80;99.90
36790;DHT22;22740;52.182;8.780;2023-05-19T08:53:03;15.10;99.90
36790;DHT22;22740;52.182;8.780;2023-05-19T08:59:22;15.20;99.90
36790;DHT22;22740;52.182;8.780;2023-05-19T09:05:25;15.50;99.90
36790;DHT22;22740;52.182;8.780;2023-05-19T09:11:27;15.20;99.90
36790;DHT22;22740;52.182;8.780;2023-05-19T09:17:31;15.80;99.90
36790;DHT22;22740;52.182;8.780;2023-05-19T09:23:34;15.60;99.90
36790;DHT22;22740;52.182;8.780;2023-05-19T09:29:38;16.10;99.90
36790;DHT22;22740;52.182;8.780;2023-05-19T09:35:46;16.10;99.90
36790;DHT22;22740;52.182;8.780;2023-05-19T09:41:54;16.60;99.90
36790;DHT22;22740;52.182;8.780;2023-05-19T09:48:03;16.70;99.90
36790;DHT22;22740;52.182;8.780;2023-05-19T09:54:07;17.30;99.90
36790;DHT22;22740;52.182;8.780;2023-05-19T10:00:13;17.70;99.90
36790;DHT22;22740;52.182;8.780;2023-05-19T10:06:16;17.70;99.90
36790;DHT22;22740;52.182;8.780;2023-05-19T10:12:19;16.80;99.90
36790;DHT22;22740;52.182;8.780;2023-05-19T10:18:25;16.40;99.90
36790;DHT22;22740;52.182;8.780;2023-05-19T10:24:29;16.60;99.90
36790;DHT22;22740;52.182;8.780;2023-05-19T10:30:38;16.50;99.90
36790;DHT22;22740;52.182;8.780;2023-05-19T10:37:37;16.00;99.90
36790;DHT22;22740;52.182;8.780;2023-05-19T10:49:27;17.00;99.90
36790;DHT22;22740;52.182;8.780;2023-05-19T10:55:49;16.40;99.90
36790;DHT22;22740;52.182;8.780;2023-05-19T11:02:05;16.00;99.90
36790;DHT22;22740;52.182;8.780;2023-05-19T11:08:10;16.80;99.90
36790;DHT22;22740;52.182;8.780;2023-05-19T11:14:19;16.80;99.90
36790;DHT22;22740;52.182;8.780;2023-05-19T11:20:27;17.00;99.90
36790;DHT22;22740;52.182;8.780;2023-05-19T11:26:41;16.60;99.90
36790;DHT22;22740;52.182;8.780;2023-05-19T11:32:47;16.40;99.90
36790;DHT22;22740;52.182;8.780;2023-05-19T11:38:50;16.60;99.90
36790;DHT22;22740;52.182;8.780;2023-05-19T11:44:56;17.10;99.90
36790;DHT22;22740;52.182;8.780;2023-05-19T11:51:01;16.50;99.90
36790;DHT22;22740;52.182;8.780;2023-05-19T11:57:06;16.90;99.90
36790;DHT22;22740;52.182;8.780;2023-05-19T12:03:12;17.60;99.90
36790;DHT22;22740;52.182;8.780;2023-05-19T12:09:16;17.70;99.90
36790;DHT22;22740;52.182;8.780;2023-05-19T12:15:20;18.00;99.90
36790;DHT22;22740;52.182;8.780;2023-05-19T12:21:24;17.60;99.90
36790;DHT22;22740;52.182;8.780;2023-05-19T12:27:35;17.70;99.90
36790;DHT22;22740;52.182;8.780;2023-05-19T12:33:39;17.80;99.90
36790;DHT22;22740;52.182;8.780;2023-05-19T12:39:43;18.20;99.90
36790;DHT22;22740;52.182;8.780;2023-05-19T12:45:48;18.70;99.90
36790;DHT22;22740;52.182;8.780;2023-05-19T12:52:00;18.20;99.90
36790;DHT22;22740;52.182;8.780;2023-05-19T12:58:12;18.10;99.90
36790;DHT22;22740;52.182;8.780;2023-05-19T13:04:16;18.20;99.90
36790;DHT22;22740;52.182;8.780;2023-05-19T13:10:20;18.10;99.90
36790;DHT22;22740;52.182;8.780;2023-05-19T13:16:23;18.00;99.90
36790;DHT22;22740;52.182;8.780;2023-05-19T13:22:25;18.20;99.90
36790;DHT22;22740;52.182;8.780;2023-05-19T13:28:27;18.50;99.90
36790;DHT22;22740;52.182;8.780;2023-05-19T13:34:31;18.50;99.90
36790;DHT22;22740;52.182;8.780;2023-05-19T13:40:34;18.70;99.90
36790;DHT22;22740;52.182;8.780;2023-05-19T13:46:37;19.10;99.90
36790;DHT22;22740;52.182;8.780;2023-05-19T13:52:47;18.90;99.90
36790;DHT22;22740;52.182;8.780;2023-05-19T13:58:50;18.80;99.90
36790;DHT22;22740;52.182;8.780;2023-05-19T14:04:52;17.60;99.90
36790;DHT22;22740;52.182;8.780;2023-05-19T14:10:59;17.10;99.90
36790;DHT22;22740;52.182;8.780;2023-05-19T14:17:03;17.00;99.90
36790;DHT22;22740;52.182;8.780;2023-05-19T14:23:07;17.40;99.90
36790;DHT22;22740;52.182;8.780;2023-05-19T14:29:10;17.70;99.90
36790;DHT22;22740;52.182;8.780;2023-05-19T14:35:14;17.70;99.90
36790;DHT22;22740;52.182;8.780;2023-05-19T14:41:16;18.10;99.90
36790;DHT22;22740;52.182;8.780;2023-05-19T14:47:21;17.80;99.90
36790;DHT22;22740;52.182;8.780;2023-05-19T14:53:25;17.80;99.90
36790;DHT22;22740;52.182;8.780;2023-05-19T14:59:29;17.40;99.90
36790;DHT22;22740;52.182;8.780;2023-05-19T15:05:33;17.40;99.90
36790;DHT22;22740;52.182;8.780;2023-05-19T15:11:37;18.00;99.90
36790;DHT22;22740;52.182;8.780;2023-05-19T15:17:39;17.80;99.90
36790;DHT22;22740;52.182;8.780;2023-05-19T15:23:43;17.30;99.90
36790;DHT22;22740;52.182;8.780;2023-05-19T15:29:47;17.20;99.90
36790;DHT22;22740;52.182;8.780;2023-05-19T15:35:50;17.10;99.90
36790;DHT22;22740;52.182;8.780;2023-05-19T15:41:54;17.90;99.90
36790;DHT22;22740;52.182;8.780;2023-05-19T15:47:58;18.40;99.90
36790;DHT22;22740;52.182;8.780;2023-05-19T15:54:01;18.40;99.90
36790;DHT22;22740;52.182;8.780;2023-05-19T16:00:04;18.30;99.90
36790;DHT22;22740;52.182;8.780;2023-05-19T16:06:07;18.30;99.90
36790;DHT22;22740;52.182;8.780;2023-05-19T16:12:10;17.80;99.90
36790;DHT22;22740;52.182;8.780;2023-05-19T16:18:12;17.40;99.90
36790;DHT22;22740;52.182;8.780;2023-05-19T16:24:15;17.30;99.90
36790;DHT22;22740;52.182;8.780;2023-05-19T16:30:21;17.70;99.90
36790;DHT22;22740;52.182;8.780;2023-05-19T16:36:25;18.20;99.90
36790;DHT22;22740;52.182;8.780;2023-05-19T16:42:30;18.10;99.90
36790;DHT22;22740;52.182;8.780;2023-05-19T16:48:33;17.50;99.90
36790;DHT22;22740;52.182;8.780;2023-05-19T16:54:37;17.10;99.90
36790;DHT22;22740;52.182;8.780;2023-05-19T17:00:39;17.70;99.90
36790;DHT22;22740;52.182;8.780;2023-05-19T17:06:42;18.00;99.90
36790;DHT22;22740;52.182;8.780;2023-05-19T17:12:48;17.70;99.90
36790;DHT22;22740;52.182;8.780;2023-05-19T17:18:50;17.50;99.90
36790;DHT22;22740;52.182;8.780;2023-05-19T17:24:53;17.30;99.90
36790;DHT22;22740;52.182;8.780;2023-05-19T17:30:57;17.10;99.90
36790;DHT22;22740;52.182;8.780;2023-05-19T17:37:00;17.20;99.90
36790;DHT22;22740;52.182;8.780;2023-05-19T17:43:03;17.20;99.90
36790;DHT22;22740;52.182;8.780;2023-05-19T17:49:07;17.30;99.90
36790;DHT22;22740;52.182;8.780;2023-05-19T17:55:12;17.90;99.90
36790;DHT22;22740;52.182;8.780;2023-05-19T18:01:17;17.80;99.90
36790;DHT22;22740;52.182;8.780;2023-05-19T18:07:27;17.50;99.90
36790;DHT22;22740;52.182;8.780;2023-05-19T18:13:33;17.10;99.90
36790;DHT22;22740;52.182;8.780;2023-05-19T18:19:41;17.00;99.90
36790;DHT22;22740;52.182;8.780;2023-05-19T18:25:50;16.80;99.90
36790;DHT22;22740;52.182;8.780;2023-05-19T18:31:56;16.70;99.90
36790;DHT22;22740;52.182;8.780;2023-05-19T18:38:00;16.60;99.90
36790;DHT22;22740;52.182;8.780;2023-05-19T18:44:03;16.50;99.90
36790;DHT22;22740;52.182;8.780;2023-05-19T18:50:10;16.40;99.90
36790;DHT22;22740;52.182;8.780;2023-05-19T18:56:12;16.30;99.90
36790;DHT22;22740;52.182;8.780;2023-05-19T19:02:18;16.20;99.90
36790;DHT22;22740;52.182;8.780;2023-05-19T19:08:23;16.10;99.90
36790;DHT22;22740;52.182;8.780;2023-05-19T19:14:26;16.00;99.90
36790;DHT22;22740;52.182;8.780;2023-05-19T19:20:30;15.90;99.90
36790;DHT22;22740;52.182;8.780;2023-05-19T19:26:32;15.80;99.90
36790;DHT22;22740;52.182;8.780;2023-05-19T19:32:36;15.80;99.90
36790;DHT22;22740;52.182;8.780;2023-05-19T19:38:39;15.70;99.90
36790;DHT22;22740;52.182;8.780;2023-05-19T19:44:42;15.60;99.90
36790;DHT22;22740;52.182;8.780;2023-05-19T19:50:46;15.50;99.90
36790;DHT22;22740;52.182;8.780;2023-05-19T19:56:54;15.50;99.90
36790;DHT22;22740;52.182;8.780;2023-05-19T20:02:59;15.40;99.90
36790;DHT22;22740;52.182;8.780;2023-05-19T20:09:06;15.40;99.90
36790;DHT22;22740;52.182;8.780;2023-05-19T20:15:09;15.50;99.90
36790;DHT22;22740;52.182;8.780;2023-05-19T20:21:12;15.60;99.90
36790;DHT22;22740;52.182;8.780;2023-05-19T20:27:15;15.40;99.90
36790;DHT22;22740;52.182;8.780;2023-05-19T20:33:18;15.30;99.90
36790;DHT22;22740;52.182;8.780;2023-05-19T20:39:21;15.10;99.90
36790;DHT22;22740;52.182;8.780;2023-05-19T20:45:24;15.00;99.90
36790;DHT22;22740;52.182;8.780;2023-05-19T20:51:27;14.90;99.90
36790;DHT22;22740;52.182;8.780;2023-05-19T20:57:31;14.80;99.90
36790;DHT22;22740;52.182;8.780;2023-05-19T21:03:34;14.60;99.90
36790;DHT22;22740;52.182;8.780;2023-05-19T21:09:41;14.50;99.90
36790;DHT22;22740;52.182;8.780;2023-05-19T21:15:48;14.20;99.90
36790;DHT22;22740;52.182;8.780;2023-05-19T21:21:51;14.10;99.90
36790;DHT22;22740;52.182;8.780;2023-05-19T21:27:54;14.10;99.90
36790;DHT22;22740;52.182;8.780;2023-05-19T21:33:57;14.30;99.90
36790;DHT22;22740;52.182;8.780;2023-05-19T21:40:01;14.10;99.90
36790;DHT22;22740;52.182;8.780;2023-05-19T21:46:04;13.90;99.90
36790;DHT22;22740;52.182;8.780;2023-05-19T21:52:08;13.90;99.90
36790;DHT22;22740;52.182;8.780;2023-05-19T21:58:11;14.00;99.90
36790;DHT22;22740;52.182;8.780;2023-05-19T22:04:16;13.90;99.90
36790;DHT22;22740;52.182;8.780;2023-05-19T22:10:24;13.80;99.90
36790;DHT22;22740;52.182;8.780;2023-05-19T22:16:26;13.70;99.90
36790;DHT22;22740;52.182;8.780;2023-05-19T22:22:30;13.90;99.90
36790;DHT22;22740;52.182;8.780;2023-05-19T22:28:33;13.90;99.90
36790;DHT22;22740;52.182;8.780;2023-05-19T22:34:36;13.90;99.90
36790;DHT22;22740;52.182;8.780;2023-05-19T22:40:41;13.40;99.90
36790;DHT22;22740;52.182;8.780;2023-05-19T22:46:44;13.40;99.90
36790;DHT22;22740;52.182;8.780;2023-05-19T22:52:47;13.30;99.90
36790;DHT22;22740;52.182;8.780;2023-05-19T22:58:50;13.40;99.90
36790;DHT22;22740;52.182;8.780;2023-05-19T23:04:54;13.40;99.90
36790;DHT22;22740;52.182;8.780;2023-05-19T23:11:00;13.30;99.90
36790;DHT22;22740;52.182;8.780;2023-05-19T23:17:04;13.20;99.90
36790;DHT22;22740;52.182;8.780;2023-05-19T23:23:07;13.20;99.90
36790;DHT22;22740;52.182;8.780;2023-05-19T23:29:11;13.20;99.90
36790;DHT22;22740;52.182;8.780;2023-05-19T23:35:16;13.10;99.90
36790;DHT22;22740;52.182;8.780;2023-05-19T23:41:21;13.00;99.90
36790;DHT22;22740;52.182;8.780;2023-05-19T23:47:23;12.90;99.90
36790;DHT22;22740;52.182;8.780;2023-05-19T23:53:27;12.90;99.90
36790;DHT22;22740;52.182;8.780;2023-05-19T23:59:29;12.70;99.90
